Weather observations for the past three days for
Clinton, MO
Metric (Imperial)
Date Time (cdt) Wind (kph) Vis. (km) Weather Sky Cond. Temperature (ºC) Relative Humidity Wind Chill (°C) Heat Index (°C) Pressure Precipitation (cm)
Air Dwpt 6 hour altimeter (cm) sea level (mb) 1 hr 3 hr 6 hr
Max. Min.
01 22:55 S 6 16.09 Fair CLR 27 19 62% 28 76.1 0.0
01 22:35 S 6 16.09 Fair CLR 27 20 66% 29 76.1 0.0
01 22:15 S 6 16.09 Fair CLR 25 21 79% 26 76.1 0.0
01 21:55 Calm 16.09 A Few Clouds FEW090 26 20 70% 27 76.1 0.0
01 21:35 Calm 16.09 Fair CLR 27 20 66% 29 76.1 0.0
01 21:15 Calm 16.09 Fair CLR 27 20 66% 29 76.07 0.0
01 20:55 Calm 16.09 Fair CLR 27 20 66% 29 76.07 0.0
01 20:35 S 6 16.09 Fair CLR 29 19 55% 30 76.05 0.0
01 20:15 Calm 16.09 Fair CLR 29 20 58% 31 76.05 0.0
01 19:55 Calm 16.09 Fair CLR 31 20 52% 33 76.02 0.0
01 19:35 Calm 16.09 Fair CLR 32 19 46% 33 76.02 0.0
01 19:15 S 6 16.09 Fair CLR 34 18 39% 35 76.05 0.0
01 18:55 S 6 16.09 Fair CLR 35 19 39% 37 76.05 0.0
01 18:35 Calm 16.09 Fair CLR 36 18 34% 37 76.05 0.0
01 18:15 S 7 16.09 A Few Clouds FEW100 36 18 34% 37 76.07 0.0
01 17:55 S 6 16.09 Partly Cloudy SCT095 37 18 33% 39 76.07 0.0
01 17:35 Calm 16.09 Mostly Cloudy BKN090 37 17 31% 38 76.07 0.0
01 17:15 Calm 16.09 Partly Cloudy SCT090 37 17 31% 38 76.07 0.0
01 16:55 S 6 16.09 A Few Clouds FEW090 36 17 32% 37 76.07 0.0
01 16:35 S 11 16.09 A Few Clouds FEW085 37 17 31% 38 76.07 0.0
01 16:15 S 17 16.09 A Few Clouds FEW085 37 17 31% 38 76.1 0.0
01 15:55 SW 7 16.09 Fair CLR 37 16 29% 37 76.1 0.0
01 15:35 W 15 16.09 Fair CLR 38 17 29% 39 76.12 0.0
01 15:15 SW 15 G 26 16.09 Fair CLR 38 17 29% 39 76.15 0.0
01 14:55 SW 13 16.09 Fair CLR 38 16 27% 39 76.15 0.0
01 14:35 Vrbl 9 G 19 16.09 Fair CLR 37 17 31% 38 76.17 0.0
01 14:15 SW 7 16.09 A Few Clouds FEW080 38 17 29% 39 76.17 0.0
01 13:55 Calm 16.09 Fair CLR 37 17 31% 38 76.2 0.0
01 13:35 W 11 16.09 Fair CLR 37 18 33% 39 76.23 0.0
01 13:15 W 15 G 24 16.09 Fair CLR 37 18 33% 39 76.23 0.0
01 12:55 S 13 16.09 Fair CLR 37 18 33% 39 76.25 0.0 0.05
01 12:35 SW 15 16.09 Fair CLR 36 19 37% 38 76.28 0.0
01 12:15 SW 13 14.48 Fair CLR 36 19 37% 38 76.28 0.0
01 11:55 SW 11 G 22 14.48 Fair CLR 35 20 41% 38 76.3 0.0
01 11:35 SW 19 14.48 Fair CLR 35 19 39% 37 76.33 0.0
01 11:15 SW 20 14.48 Fair CLR 34 20 44% 36 76.33 0.0
01 10:55 SW 17 16.09 Fair CLR 33 20 46% 35 76.33 0.0
01 10:35 SW 19 G 28 14.48 Fair CLR 33 19 44% 35 76.33 0.0
01 10:15 SW 19 16.09 Fair CLR 32 19 46% 33 76.33 0.0
01 09:55 SW 17 14.48 Fair CLR 31 19 49% 32 76.33 0.0
01 09:35 SW 13 14.48 Fair CLR 30 19 52% 31 76.33 0.0
01 09:15 SW 13 16.09 Fair CLR 28 19 58% 29 76.35 0.0
01 08:55 SW 11 14.48 A Few Clouds FEW095 28 19 58% 29 76.35 0.0
01 08:35 S 9 16.09 Fair CLR 27 19 62% 28 76.35 0.0
01 08:15 SW 7 14.48 Fair CLR 25 19 69% 26 76.35 0.0
01 07:55 S 6 14.48 A Few Clouds FEW090 25 19 69% 26 76.33 0.0
01 07:35 S 7 14.48 Partly Cloudy SCT090 24 19 74% 25 76.33 0.0
01 07:15 S 7 14.48 A Few Clouds FEW090 24 18 69% 25 76.3 0.0
01 06:35 S 7 16.09 Fair CLR 24 18 69% 25 76.25 0.0
01 06:15 S 9 16.09 Fair CLR 24 18 69% 25 76.25 0.0
01 05:55 S 9 16.09 Fair CLR 24 18 69% 25 76.23 0.0
01 05:35 S 9 16.09 Fair CLR 25 18 65% 26 76.23 0.0
01 05:15 S 7 16.09 Fair CLR 25 18 65% 26 76.23 0.0
01 04:55 S 9 16.09 Fair CLR 25 18 65% 26 76.2 0.0
01 04:35 S 9 16.09 Fair CLR 25 18 65% 26 76.2 0.0
01 04:15 S 7 16.09 Fair CLR 26 18 61% 27 76.2 0.0
01 03:55 S 7 16.09 Fair CLR 25 18 65% 26 76.2 0.0
01 03:35 S 7 16.09 Fair CLR 26 18 61% 27 76.2 0.0
01 03:15 S 9 16.09 Fair CLR 26 18 61% 27 76.17 0.0
01 02:55 S 9 16.09 Fair CLR 26 18 61% 27 76.17 0.0
01 02:35 S 7 16.09 Fair CLR 26 18 61% 27 76.17 0.0
01 02:15 S 9 16.09 Fair CLR 26 18 61% 27 76.17 0.0
01 01:55 S 9 16.09 Fair CLR 27 18 58% 28 76.17 0.0
01 01:35 S 11 16.09 Fair CLR 27 18 58% 28 76.17 0.0
01 01:15 S 11 16.09 Fair CLR 27 18 58% 28 76.2 0.0
01 00:55 S 11 16.09 Fair CLR 26 18 61% 27 76.2 0.0
01 00:35 S 9 16.09 Fair CLR 27 18 58% 28 76.17 0.0
01 00:15 S 9 16.09 Fair CLR 26 18 61% 27 76.17 0.0
31 23:55 S 7 16.09 Fair CLR 27 17 54% 28 76.15 0.0
31 23:35 S 7 16.09 Fair CLR 26 18 61% 27 76.15 0.0
31 23:15 S 7 16.09 Fair CLR 26 17 58% 27 76.15 0.0
31 22:55 SE 7 14.48 Fair CLR 27 17 54% 28 76.15 0.0
31 22:35 SE 9 12.87 Fair CLR 24 18 69% 25 76.15 0.0
31 22:15 Calm 14.48 Fair CLR 24 19 74% 25 76.12 0.0
31 21:55 Calm 16.09 Fair CLR 25 20 74% 26 76.12 0.0
31 21:35 Calm 16.09 Fair CLR 25 19 69% 26 76.12 0.0
31 21:15 Calm 14.48 Fair CLR 26 19 65% 27 76.12 0.0
31 20:55 Calm 16.09 Fair CLR 27 18 58% 28 76.1 0.0
31 20:35 Calm 16.09 Fair CLR 28 18 55% 29 76.07 0.0
31 20:15 Calm 14.48 Fair CLR 28 18 55% 29 76.07 0.0
31 19:55 Calm 14.48 Fair CLR 33 17 38% 33 76.07 0.0
31 19:35 Calm 16.09 Fair CLR 34 16 34% 34 76.05 0.0
31 19:15 S 6 16.09 Fair CLR 35 16 32% 35 76.05 0.0
31 18:35 SW 7 16.09 Fair CLR 37 16 29% 37 76.05 0.0
31 18:15 S 13 14.48 Fair CLR 37 15 27% 37 76.02 0.0
31 17:55 S 11 16.09 Fair CLR 38 15 25% 38 76.02 0.0
31 17:35 S 17 16.09 Fair CLR 38 15 25% 38 76.02 0.0
31 17:15 SW 11 G 20 16.09 Fair CLR 38 16 27% 39 76.05 0.0
31 16:55 SW 15 16.09 Fair CLR 39 17 27% 40 76.05 0.0
31 16:35 SW 9 G 19 16.09 Fair CLR 39 16 26% 40 76.05 0.0
31 16:15 SW 17 14.48 Fair CLR 39 17 27% 40 76.05 0.0
31 15:55 S 15 16.09 Fair CLR 39 17 27% 40 76.05 0.0
31 15:35 S 15 G 24 16.09 Fair CLR 39 17 27% 40 76.07 0.0
31 15:15 S 15 G 24 14.48 Fair CLR 39 16 26% 40 76.07 0.0
31 14:55 SW 19 16.09 Fair CLR 38 17 29% 39 76.1 0.0
31 14:35 SW 19 G 30 16.09 Fair CLR 38 17 29% 39 76.12 0.0
31 14:15 SW 19 G 30 16.09 Fair CLR 38 17 29% 39 76.12 0.0
31 13:55 SW 19 G 30 14.48 Fair CLR 38 17 29% 39 76.15 0.0
31 13:35 SW 19 G 33 14.48 Fair CLR 38 17 29% 39 76.15 0.0
31 13:15 SW 20 16.09 Fair CLR 37 17 31% 38 76.17 0.0
31 12:55 SW 22 16.09 Fair CLR 37 17 31% 38 76.2 0.0
31 12:35 SW 22 G 33 14.48 Fair CLR 37 18 33% 39 76.2 0.0
31 12:15 SW 17 G 31 14.48 Fair CLR 36 18 34% 37 76.23 0.0
31 11:55 SW 19 14.48 Fair CLR 36 18 34% 37 76.23 0.0
31 11:35 SW 17 G 28 14.48 Fair CLR 35 19 39% 37 76.25 0.0
31 11:15 SW 17 14.48 Fair CLR 34 19 41% 36 76.25 0.0
31 10:55 SW 17 14.48 Fair CLR 33 19 44% 35 76.25 0.0
31 10:35 SW 20 14.48 Fair CLR 32 18 43% 33 76.25 0.0
31 10:15 SW 22 14.48 Fair CLR 31 18 46% 32 76.25 0.0
31 09:55 SW 20 G 31 14.48 Fair CLR 31 18 46% 32 76.25 0.0
31 09:35 SW 17 G 28 14.48 Fair CLR 30 18 49% 31 76.25 0.0
31 09:15 SW 20 G 35 14.48 Fair CLR 29 18 51% 30 76.25 0.0
31 08:55 SW 17 G 26 16.09 Fair CLR 28 18 55% 29 76.25 0.0
31 08:35 S 15 14.48 Fair CLR 27 18 58% 28 76.25 0.0
31 08:15 S 15 14.48 Fair CLR 26 18 61% 27 76.25 0.0
31 07:55 S 11 14.48 Fair CLR 25 18 65% 26 76.23 0.0
31 07:35 S 9 14.48 Fair CLR 25 18 65% 26 76.23 0.0
31 07:15 S 9 14.48 Fair CLR 24 17 65% 25 76.2 0.0
31 06:55 S 11 14.48 Fair CLR 24 17 65% 25 76.15 0.0
31 06:35 S 9 16.09 Fair CLR 24 17 65% 25 76.15 0.0
31 06:15 S 7 14.48 Fair CLR 24 17 65% 25 76.15 0.0
31 05:55 S 11 16.09 Fair CLR 24 18 69% 25 76.15 0.0
31 05:35 S 9 16.09 Fair CLR 24 17 65% 25 76.12 0.0
31 05:15 S 9 16.09 Fair CLR 24 17 65% 25 76.12 0.0
31 04:55 S 9 16.09 Fair CLR 25 18 65% 26 76.12 0.0
31 04:35 S 11 16.09 Fair CLR 25 18 65% 26 76.1 0.0
31 04:15 S 11 16.09 Fair CLR 26 18 61% 27 76.1 0.0
31 03:55 S 13 16.09 Fair CLR 26 18 61% 27 76.1 0.0
31 03:35 S 11 16.09 Fair CLR 26 18 61% 27 76.1 0.0
31 03:15 S 11 G 22 16.09 Fair CLR 27 18 58% 28 76.07 0.0
31 02:55 S 11 G 22 16.09 Fair CLR 27 18 58% 28 76.07 0.0
31 02:35 S 17 16.09 Fair CLR 27 18 58% 28 76.07 0.0
31 02:15 S 13 16.09 Fair CLR 27 18 58% 28 76.07 0.0
31 01:55 S 15 16.09 Fair CLR 27 18 58% 28 76.07 0.0
31 01:35 S 17 16.09 Fair CLR 27 18 58% 28 76.07 0.0
31 01:15 S 13 16.09 Fair CLR 27 18 58% 28 76.07 0.0
31 00:55 S 13 16.09 Fair CLR 27 18 58% 28 76.05 0.0
31 00:35 S 13 16.09 Fair CLR 27 18 58% 28 76.05 0.0
31 00:15 S 13 16.09 Fair CLR 27 18 58% 28 76.05 0.0
30 23:55 S 9 16.09 Fair CLR 28 18 55% 29 76.05 0.0
30 23:35 S 11 16.09 Fair CLR 28 18 55% 29 76.02 0.0
30 23:15 S 11 16.09 Fair CLR 28 18 55% 29 76.02 0.0
30 22:55 S 11 16.09 Fair CLR 28 18 55% 29 76.02 0.0
30 22:35 S 11 16.09 Fair CLR 28 18 55% 29 76.02 0.0
30 22:15 S 11 16.09 Fair CLR 27 18 58% 28 76.02 0.0
30 21:55 S 9 16.09 Fair CLR 28 18 55% 29 76.02 0.0
30 21:35 S 11 16.09 Fair CLR 28 18 55% 29 76.02 0.0
30 21:15 S 9 16.09 Fair CLR 29 18 51% 30 76 0.0
30 20:55 S 11 14.48 Fair CLR 29 17 48% 29 75.97 0.0
30 20:35 SE 9 16.09 Fair CLR 30 17 46% 30 75.95 0.0
30 20:15 S 11 14.48 Fair CLR 30 17 46% 30 75.92 0.0
30 19:55 S 11 16.09 Fair CLR 31 17 43% 31 75.9 0.0
30 19:35 S 9 14.48 Fair CLR 32 17 41% 32 75.92 0.0
30 19:15 S 11 14.48 Fair CLR 34 17 36% 35 75.92 0.0
30 18:55 S 13 14.48 Fair CLR 35 16 32% 35 75.92 0.0
30 18:35 S 19 16.09 Fair CLR 36 16 30% 36 75.92 0.0
30 18:15 S 17 G 30 16.09 Fair CLR 36 15 28% 36 75.92 0.0
30 17:55 S 17 G 30 14.48 Fair CLR 37 16 29% 37 75.92 0.0
30 17:35 S 19 14.48 Fair CLR 37 16 29% 37 75.92 0.0
30 17:15 S 17 14.48 Fair CLR 37 16 29% 37 75.92 0.0
30 16:55 S 20 G 31 16.09 Fair CLR 38 16 27% 39 75.95 0.0
30 16:35 S 15 16.09 Fair CLR 38 17 29% 39 75.95 0.0
30 16:15 SW 15 G 28 14.48 Fair CLR 38 17 29% 39 75.95 0.0
30 15:55 S 19 16.09 Fair CLR 38 17 29% 39 75.97 0.0
30 15:35 S 15 G 26 14.48 Fair CLR 38 17 29% 39 75.97 0.0
30 15:15 S 17 G 33 14.48 Fair CLR 37 17 31% 38 76 0.0
30 14:55 SW 19 14.48 Fair CLR 37 17 31% 38 76.02 0.0
30 14:35 S 22 G 31 14.48 Fair CLR 37 17 31% 38 76.02 0.0
30 14:15 S 20 G 30 14.48 Fair CLR 37 17 31% 38 76.05 0.0
30 13:55 S 15 G 30 14.48 Fair CLR 37 17 31% 38 76.05 0.0
30 13:35 S 20 16.09 Fair CLR 36 17 32% 37 76.07 0.0
30 13:15 S 17 14.48 Fair CLR 36 17 32% 37 76.07 0.0
30 12:55 SW 22 14.48 Fair CLR 34 17 36% 35 76.1 0.0
30 12:35 S 20 14.48 Fair CLR 34 17 36% 35 76.12 0.0
30 12:15 SW 15 G 26 16.09 Fair CLR 33 17 38% 33 76.12 0.0
30 11:55 S 17 14.48 Fair CLR 33 17 38% 33 76.15 0.0
30 11:35 S 20 G 33 14.48 Fair CLR 34 17 36% 35 76.15 0.0
30 11:15 S 24 G 33 14.48 Fair CLR 33 17 38% 33 76.15 0.0
30 10:55 SW 19 G 28 14.48 Fair CLR 32 17 41% 32 76.15 0.0
30 10:35 S 17 G 30 14.48 Fair CLR 31 16 40% 31 76.15 0.0
30 10:15 S 19 G 31 14.48 Fair CLR 30 16 43% 30 76.15 0.0
30 09:55 S 20 G 31 16.09 Fair CLR 30 16 43% 30 76.15 0.0
30 09:35 S 20 G 33 14.48 Fair CLR 29 16 45% 29 76.15 0.0
30 09:15 S 19 G 28 16.09 Fair CLR 28 16 48% 28 76.15 0.0
30 08:55 S 17 G 26 14.48 Fair CLR 27 16 51% 27 76.15 0.0
30 08:35 S 15 14.48 Fair CLR 26 16 54% 27 76.17 0.0
30 08:15 S 11 G 22 14.48 Fair CLR 25 16 57% 26 76.17 0.0
30 07:55 S 11 14.48 Fair CLR 25 16 57% 26 76.17 0.0
30 07:35 S 13 16.09 Fair CLR 24 16 61% 25 76.17 0.0
30 07:15 S 11 16.09 Fair CLR 24 16 61% 25 76.15 0.0
30 06:55 S 11 16.09 Fair CLR 23 16 65% 76.15 0.0
30 06:35 S 11 16.09 Fair CLR 23 16 65% 76.15 0.0
30 06:15 S 9 16.09 Fair CLR 23 16 65% 76.15 0.0
30 05:55 S 11 16.09 Fair CLR 24 16 61% 25 76.15 0.0
30 05:35 S 11 16.09 Fair CLR 24 16 61% 25 76.15 0.0
30 05:15 S 13 16.09 Fair CLR 24 16 61% 25 76.12 0.0
30 04:55 S 9 16.09 Fair CLR 24 16 61% 25 76.12 0.0
30 04:35 S 13 G 22 16.09 Fair CLR 25 16 57% 26 76.12 0.0
30 04:15 S 15 16.09 Fair CLR 25 16 57% 26 76.1 0.0
30 03:55 S 13 16.09 Fair CLR 25 16 57% 26 76.12 0.0
30 03:35 S 13 16.09 Fair CLR 25 16 57% 26 76.1 0.0
30 03:15 S 13 16.09 Fair CLR 25 16 57% 26 76.1 0.0
30 02:55 S 13 16.09 Fair CLR 25 16 57% 26 76.1 0.0
30 02:35 S 13 16.09 Fair CLR 25 16 57% 26 76.1 0.0
30 02:15 S 13 16.09 Fair CLR 25 16 57% 26 76.12 0.0
30 01:55 S 11 16.09 Fair CLR 25 16 57% 26 76.12 0.0
30 01:35 S 13 16.09 Fair CLR 25 16 57% 26 76.12 0.0
30 01:15 S 13 16.09 Fair CLR 26 16 54% 27 76.12 0.0
30 00:55 S 15 14.48 Fair CLR 26 15 51% 27 76.12 0.0
30 00:35 S 15 16.09 Fair CLR 26 15 51% 27 76.12 0.0
30 00:15 S 19 16.09 Fair CLR 27 15 48% 27 76.12 0.0
29 23:55 S 15 16.09 Fair CLR 27 15 48% 27 76.12 0.0
29 23:35 S 13 16.09 Fair CLR 27 16 51% 27 76.12 0.0
29 23:15 S 13 G 22 16.09 Fair CLR 27 16 51% 27 76.12 0.0
Date Time (cdt) Wind (kph) Vis. (km) Weather Sky Cond. Air Dwpt Max. Min. Relative Humidity Wind Chill (°C) Heat Index (°C) altimeter (cm) sea level (mb) 1 hr 3 hr 6 hr
6 hour
Temperature (ºC) Pressure Precipitation (cm)